createdAt,value
2022-09-09T00:04:32.098Z,95499.00
2022-09-09T00:10:37.484Z,95503.00
2022-09-09T00:16:24.688Z,95502.00
2022-09-09T00:22:17.481Z,95502.00
2022-09-09T00:27:49.583Z,95491.00
2022-09-09T00:33:25.115Z,95494.00
2022-09-09T00:39:01.818Z,95497.00
2022-09-09T00:44:37.240Z,95508.00
2022-09-09T00:50:31.482Z,95509.00
2022-09-09T00:56:15.132Z,95507.00
2022-09-09T01:01:43.603Z,95507.00
2022-09-09T01:07:20.068Z,95509.00
2022-09-09T01:12:50.136Z,95517.00
2022-09-09T01:18:29.055Z,95504.00
2022-09-09T01:24:28.714Z,95508.00
2022-09-09T01:30:18.650Z,95502.00
2022-09-09T01:35:55.622Z,95496.00
2022-09-09T01:41:26.498Z,95496.00
2022-09-09T01:47:03.609Z,95502.00
2022-09-09T01:52:37.463Z,95501.00
2022-09-09T01:58:25.098Z,95507.00
2022-09-09T02:03:59.005Z,95497.00
2022-09-09T02:09:28.023Z,95506.00
2022-09-09T02:15:05.455Z,95489.00
2022-09-09T02:20:43.379Z,95488.00
2022-09-09T02:26:15.993Z,95482.00
2022-09-09T02:31:46.957Z,95491.00
2022-09-09T02:37:23.695Z,95488.00
2022-09-09T02:42:56.523Z,95490.00
2022-09-09T02:48:49.253Z,95485.00
2022-09-09T02:54:33.879Z,95476.00
2022-09-09T03:00:08.472Z,95479.00
2022-09-09T03:05:36.994Z,95482.00
2022-09-09T03:11:06.437Z,95474.00
2022-09-09T03:16:37.237Z,95472.00
2022-09-09T03:22:05.523Z,95463.00
2022-09-09T03:27:36.671Z,95469.00
2022-09-09T03:33:05.485Z,95472.00
2022-09-09T03:38:35.746Z,95463.00
2022-09-09T03:44:04.045Z,95463.00
2022-09-09T03:49:37.849Z,95461.00
2022-09-09T03:55:07.411Z,95464.00
2022-09-09T04:00:35.752Z,95464.00
2022-09-09T04:06:07.819Z,95453.00
2022-09-09T04:11:35.798Z,95463.00
2022-09-09T04:17:07.167Z,95453.00
2022-09-09T04:22:35.460Z,95443.00
2022-09-09T04:28:03.898Z,95439.00
2022-09-09T04:33:35.967Z,95435.00
2022-09-09T04:39:06.095Z,95443.00
2022-09-09T04:44:37.072Z,95430.00
2022-09-09T04:50:06.301Z,95438.00
2022-09-09T04:55:36.093Z,95444.00
2022-09-09T05:01:25.813Z,95431.00
2022-09-09T05:06:56.950Z,95430.00
2022-09-09T05:12:26.704Z,95444.00
2022-09-09T05:18:01.798Z,95445.00
2022-09-09T05:23:32.074Z,95440.00
2022-09-09T05:29:01.568Z,95458.00
2022-09-09T05:34:31.041Z,95453.00
2022-09-09T05:39:59.174Z,95451.00
2022-09-09T05:45:27.686Z,95444.00
2022-09-09T05:50:56.722Z,95453.00
2022-09-09T05:56:27.524Z,95454.00
2022-09-09T06:01:57.328Z,95460.00
2022-09-09T06:07:31.009Z,95463.00
2022-09-09T06:12:58.773Z,95469.00
2022-09-09T06:18:27.885Z,95471.00
2022-09-09T06:24:00.330Z,95466.00
2022-09-09T06:29:28.859Z,95472.00
2022-09-09T06:34:57.076Z,95471.00
2022-09-09T06:40:25.490Z,95468.00
2022-09-09T06:46:32.172Z,95472.00
2022-09-09T06:52:01.332Z,95479.00
2022-09-09T06:57:37.180Z,95483.00
2022-09-09T07:03:07.312Z,95486.00
2022-09-09T07:08:36.102Z,95484.00
2022-09-09T07:14:06.128Z,95480.00
2022-09-09T07:19:36.318Z,95489.00
2022-09-09T07:25:06.678Z,95493.00
2022-09-09T07:30:34.881Z,95512.00
2022-09-09T07:36:14.425Z,95561.00
2022-09-09T07:41:47.171Z,95532.00
2022-09-09T07:47:17.412Z,95549.00
2022-09-09T07:52:52.044Z,95554.00
2022-09-09T07:58:20.542Z,95545.00
2022-09-09T08:04:05.156Z,95564.00
2022-09-09T08:09:34.739Z,95558.00
2022-09-09T08:15:09.642Z,95563.00
2022-09-09T08:20:38.927Z,95567.00
2022-09-09T08:26:14.477Z,95575.00
2022-09-09T08:31:55.552Z,95580.00
2022-09-09T08:37:23.797Z,95580.00
2022-09-09T08:42:56.480Z,95587.00
2022-09-09T08:49:11.793Z,95593.00
2022-09-09T08:54:52.176Z,95585.00
2022-09-09T09:00:23.362Z,95578.00
2022-09-09T09:06:20.687Z,95585.00
2022-09-09T09:12:03.715Z,95583.00
2022-09-09T09:17:39.841Z,95579.00
2022-09-09T09:23:23.938Z,95575.00
2022-09-09T09:28:58.349Z,95584.00
2022-09-09T09:34:26.508Z,95586.00
2022-09-09T09:40:04.280Z,95593.00
2022-09-09T09:45:55.217Z,95594.00
2022-09-09T09:51:33.325Z,95592.00
2022-09-09T09:57:17.534Z,95598.00
2022-09-09T10:02:49.330Z,95596.00
2022-09-09T10:08:22.749Z,95593.00
2022-09-09T10:14:25.892Z,95590.00
2022-09-09T10:20:38.294Z,95604.00
2022-09-09T10:26:21.934Z,95592.00
2022-09-09T10:32:15.634Z,95587.00
2022-09-09T10:38:15.054Z,95593.00
2022-09-09T10:44:00.486Z,95592.00
2022-09-09T10:50:09.184Z,95603.00
2022-09-09T10:55:44.152Z,95589.00
2022-09-09T11:01:43.045Z,95595.00
2022-09-09T11:07:22.627Z,95593.00
2022-09-09T11:12:53.482Z,95599.00
2022-09-09T11:18:24.128Z,95594.00
2022-09-09T11:24:00.737Z,95595.00
2022-09-09T11:30:51.198Z,95589.00
2022-09-09T11:36:35.848Z,95595.00
2022-09-09T11:42:23.531Z,95579.00
2022-09-09T11:48:26.891Z,95578.00
2022-09-09T11:54:02.392Z,95588.00
2022-09-09T11:59:32.772Z,95593.00
2022-09-09T12:05:13.539Z,95590.00
2022-09-09T12:10:41.518Z,95587.00
2022-09-09T12:16:39.618Z,95578.00
2022-09-09T12:22:31.944Z,95588.00
2022-09-09T12:28:24.768Z,95575.00
2022-09-09T12:33:53.849Z,95580.00
2022-09-09T12:39:40.502Z,95576.00
2022-09-09T12:45:20.642Z,95567.00
2022-09-09T12:50:56.809Z,95560.00
2022-09-09T12:56:30.129Z,95560.00
2022-09-09T13:01:59.744Z,95552.00
2022-09-09T13:07:27.686Z,95555.00
2022-09-09T13:12:55.514Z,95539.00
2022-09-09T13:18:28.387Z,95539.00
2022-09-09T13:23:56.162Z,95537.00
2022-09-09T13:29:24.267Z,95532.00
2022-09-09T13:34:56.279Z,95525.00
2022-09-09T13:40:25.134Z,95522.00
2022-09-09T13:45:59.659Z,95525.00
2022-09-09T13:51:43.700Z,95521.00
2022-09-09T13:57:21.559Z,95516.00
2022-09-09T14:02:50.495Z,95501.00
2022-09-09T14:08:26.921Z,95506.00
2022-09-09T14:13:55.074Z,95501.00
2022-09-09T14:19:22.685Z,95504.00
2022-09-09T14:24:50.761Z,95504.00
2022-09-09T14:30:18.670Z,95491.00
2022-09-09T14:35:47.020Z,95514.00
2022-09-09T14:41:18.161Z,95528.00
2022-09-09T14:46:46.295Z,95524.00
2022-09-09T14:52:14.150Z,95525.00
2022-09-09T14:57:42.555Z,95528.00
2022-09-09T15:03:11.819Z,95528.00
2022-09-09T15:08:45.251Z,95532.00
2022-09-09T15:14:13.271Z,95526.00
2022-09-09T15:19:41.017Z,95510.00
2022-09-09T15:25:09.328Z,95514.00
2022-09-09T15:30:38.179Z,95520.00
2022-09-09T15:36:22.903Z,95508.00
2022-09-09T15:41:50.716Z,95503.00
2022-09-09T15:47:18.903Z,95502.00
2022-09-09T15:52:46.648Z,95502.00
2022-09-09T15:58:14.462Z,95481.00
2022-09-09T16:03:52.080Z,95475.00
2022-09-09T16:09:20.462Z,95488.00
2022-09-09T16:14:48.352Z,95483.00
2022-09-09T16:20:16.604Z,95478.00
2022-09-09T16:25:44.309Z,95479.00
2022-09-09T16:31:19.246Z,95485.00
2022-09-09T16:36:48.500Z,95472.00
2022-09-09T16:42:20.486Z,95475.00
2022-09-09T16:47:52.326Z,95462.00
2022-09-09T16:53:20.334Z,95466.00
2022-09-09T16:58:58.304Z,95469.00
2022-09-09T17:04:29.560Z,95470.00
2022-09-09T17:10:05.178Z,95478.00
2022-09-09T17:15:35.351Z,95479.00
2022-09-09T17:21:08.890Z,95476.00
2022-09-09T17:26:39.167Z,95473.00
2022-09-09T17:32:08.277Z,95486.00
2022-09-09T17:37:37.301Z,95483.00
2022-09-09T17:43:05.525Z,95480.00
2022-09-09T17:48:33.559Z,95489.00
2022-09-09T17:54:28.171Z,95490.00
2022-09-09T17:59:55.933Z,95504.00
2022-09-09T18:05:24.254Z,95503.00
2022-09-09T18:10:56.249Z,95512.00
2022-09-09T18:16:30.459Z,95523.00
2022-09-09T18:22:01.925Z,95506.00
2022-09-09T18:27:31.765Z,95522.00
2022-09-09T18:33:00.683Z,95522.00
2022-09-09T18:38:32.626Z,95530.00
2022-09-09T18:44:11.077Z,95531.00
2022-09-09T18:49:43.300Z,95538.00
2022-09-09T18:55:13.216Z,95552.00
2022-09-09T19:00:42.347Z,95542.00
2022-09-09T19:06:19.044Z,95546.00
2022-09-09T19:11:50.251Z,95562.00
2022-09-09T19:17:20.467Z,95567.00
2022-09-09T19:22:50.327Z,95580.00
2022-09-09T19:28:19.491Z,95593.00
2022-09-09T19:33:50.030Z,95616.00
2022-09-09T19:39:21.389Z,95619.00
2022-09-09T19:44:53.890Z,95622.00
2022-09-09T19:50:28.968Z,95625.00
2022-09-09T19:55:58.483Z,95636.00
2022-09-09T20:01:39.558Z,95633.00
2022-09-09T20:07:09.901Z,95648.00
2022-09-09T20:12:40.616Z,95637.00
2022-09-09T20:18:09.852Z,95647.00
2022-09-09T20:23:51.566Z,95640.00
2022-09-09T20:29:22.055Z,95644.00
2022-09-09T20:34:53.175Z,95644.00
2022-09-09T20:40:22.872Z,95639.00
2022-09-09T20:46:01.634Z,95638.00
2022-09-09T20:51:33.308Z,95642.00
2022-09-09T20:57:01.349Z,95646.00
2022-09-09T21:02:29.572Z,95653.00
2022-09-09T21:07:57.343Z,95648.00
2022-09-09T21:13:25.763Z,95648.00
2022-09-09T21:18:54.191Z,95658.00
2022-09-09T21:24:22.801Z,95665.00
2022-09-09T21:29:50.910Z,95675.00
2022-09-09T21:35:19.108Z,95691.00
2022-09-09T21:40:50.419Z,95698.00
2022-09-09T21:46:18.574Z,95706.00
2022-09-09T21:51:47.628Z,95708.00
2022-09-09T21:57:15.650Z,95702.00
2022-09-09T22:02:46.943Z,95710.00
2022-09-09T22:08:18.789Z,95705.00
2022-09-09T22:13:49.795Z,95703.00
2022-09-09T22:19:20.454Z,95698.00
2022-09-09T22:24:48.720Z,95694.00
2022-09-09T22:30:17.242Z,95687.00
2022-09-09T22:35:49.715Z,95689.00
2022-09-09T22:41:20.664Z,95689.00
2022-09-09T22:46:48.988Z,95686.00
2022-09-09T22:52:17.208Z,95696.00
2022-09-09T22:57:44.960Z,95690.00
2022-09-09T23:03:13.234Z,95685.00
2022-09-09T23:08:41.460Z,95682.00
2022-09-09T23:14:11.814Z,95684.00
2022-09-09T23:19:40.159Z,95679.00
2022-09-09T23:25:08.704Z,95669.00
2022-09-09T23:30:42.634Z,95676.00
2022-09-09T23:36:15.531Z,95669.00
2022-09-09T23:41:44.713Z,95668.00
2022-09-09T23:47:12.371Z,95657.00
2022-09-09T23:52:44.190Z,95662.00
2022-09-09T23:58:11.955Z,95650.00
